createdAt,value
2023-05-23T00:00:17.347Z,10.95
2023-05-23T00:02:47.325Z,11.25
2023-05-23T00:05:18.165Z,11.07
2023-05-23T00:07:47.058Z,11.13
2023-05-23T00:10:17.272Z,10.63
2023-05-23T00:12:48.386Z,11.27
2023-05-23T00:15:17.394Z,11.25
2023-05-23T00:17:47.095Z,11.32
2023-05-23T00:20:16.251Z,11.60
2023-05-23T00:22:44.933Z,11.45
2023-05-23T00:25:13.615Z,11.50
2023-05-23T00:27:43.702Z,11.30
2023-05-23T00:30:13.024Z,11.73
2023-05-23T00:32:41.608Z,10.88
2023-05-23T00:35:11.007Z,11.25
2023-05-23T00:37:40.617Z,10.82
2023-05-23T00:40:10.317Z,10.82
2023-05-23T00:42:38.941Z,10.65
2023-05-23T00:45:10.264Z,10.75
2023-05-23T00:47:39.167Z,11.40
2023-05-23T00:50:13.098Z,11.50
2023-05-23T00:52:42.970Z,10.82
2023-05-23T00:55:13.433Z,10.85
2023-05-23T00:57:44.610Z,10.70
2023-05-23T01:00:16.795Z,11.40
2023-05-23T01:02:48.232Z,11.25
2023-05-23T01:05:18.776Z,10.52
2023-05-23T01:07:48.139Z,11.02
2023-05-23T01:10:18.466Z,11.45
2023-05-23T01:12:57.823Z,11.57
2023-05-23T01:15:34.453Z,11.27
2023-05-23T01:18:08.636Z,11.45
2023-05-23T01:20:45.211Z,11.82
2023-05-23T01:23:33.993Z,11.82
2023-05-23T01:26:26.404Z,11.80
2023-05-23T01:29:10.387Z,12.57
2023-05-23T01:31:44.251Z,12.27
2023-05-23T01:34:17.168Z,12.00
2023-05-23T01:36:46.778Z,12.43
2023-05-23T01:39:15.521Z,11.98
2023-05-23T01:41:44.085Z,11.93
2023-05-23T01:44:14.611Z,12.57
2023-05-23T01:46:44.580Z,12.20
2023-05-23T01:49:15.442Z,12.38
2023-05-23T01:51:44.412Z,12.85
2023-05-23T01:54:14.660Z,13.43
2023-05-23T01:56:44.317Z,13.20
2023-05-23T01:59:15.320Z,13.07
2023-05-23T02:01:44.936Z,13.07
2023-05-23T02:04:15.870Z,13.40
2023-05-23T02:06:44.566Z,13.23
2023-05-23T02:09:15.337Z,13.40
2023-05-23T02:11:44.067Z,14.13
2023-05-23T02:14:14.336Z,14.30
2023-05-23T02:16:44.223Z,13.57
2023-05-23T02:19:13.121Z,13.98
2023-05-23T02:21:41.732Z,13.32
2023-05-23T02:24:10.474Z,13.77
2023-05-23T02:26:39.320Z,13.77
2023-05-23T02:29:07.901Z,14.35
2023-05-23T02:31:38.462Z,14.55
2023-05-23T02:34:07.382Z,14.07
2023-05-23T02:36:37.329Z,14.15
2023-05-23T02:39:06.533Z,14.07
2023-05-23T02:41:37.238Z,14.25
2023-05-23T02:44:06.873Z,14.48
2023-05-23T02:46:35.634Z,14.35
2023-05-23T02:49:07.124Z,14.00
2023-05-23T02:51:36.241Z,14.73
2023-05-23T02:54:05.066Z,14.23
2023-05-23T02:56:37.425Z,14.82
2023-05-23T02:59:06.196Z,14.98
2023-05-23T03:01:35.372Z,14.43
2023-05-23T03:04:04.484Z,14.32
2023-05-23T03:06:37.083Z,15.18
2023-05-23T03:09:06.049Z,14.55
2023-05-23T03:11:35.320Z,14.60
2023-05-23T03:14:04.594Z,13.82
2023-05-23T03:16:33.306Z,14.88
2023-05-23T03:19:02.176Z,13.90
2023-05-23T03:21:31.980Z,14.40
2023-05-23T03:24:02.155Z,15.02
2023-05-23T03:26:32.623Z,14.50
2023-05-23T03:29:01.963Z,14.70
2023-05-23T03:31:36.233Z,14.38
2023-05-23T03:34:05.774Z,14.45
2023-05-23T03:36:35.818Z,14.02
2023-05-23T03:39:07.391Z,14.55
2023-05-23T03:41:36.844Z,14.80
2023-05-23T03:44:05.829Z,13.82
2023-05-23T03:46:35.014Z,14.15
2023-05-23T03:49:04.631Z,14.73
2023-05-23T03:51:33.472Z,14.63
2023-05-23T03:54:02.394Z,13.70
2023-05-23T03:56:32.860Z,14.40
2023-05-23T03:59:01.695Z,14.05
2023-05-23T04:01:30.409Z,13.68
2023-05-23T04:04:00.502Z,14.27
2023-05-23T04:06:33.826Z,14.05
2023-05-23T04:09:28.064Z,13.85
2023-05-23T04:11:59.297Z,13.90
2023-05-23T04:14:30.129Z,14.07
2023-05-23T04:17:01.188Z,13.73
2023-05-23T04:20:01.153Z,13.60
2023-05-23T04:22:30.482Z,13.10
2023-05-23T04:24:59.415Z,13.10
2023-05-23T04:27:32.928Z,12.70
2023-05-23T04:30:01.924Z,12.80
2023-05-23T04:32:31.778Z,12.45
2023-05-23T04:35:02.324Z,12.13
2023-05-23T04:37:33.152Z,12.15
2023-05-23T04:40:02.470Z,12.70
2023-05-23T04:42:46.469Z,12.52
2023-05-23T04:46:23.258Z,12.95
2023-05-23T04:48:59.008Z,12.20
2023-05-23T04:51:27.940Z,12.75
2023-05-23T04:54:02.560Z,13.55
2023-05-23T04:56:31.699Z,13.02
2023-05-23T04:59:02.828Z,11.32
2023-05-23T05:01:58.197Z,11.57
2023-05-23T05:04:27.099Z,10.65
2023-05-23T05:06:56.076Z,10.30
2023-05-23T05:09:26.018Z,10.57
2023-05-23T05:11:55.371Z,10.65
2023-05-23T05:14:26.811Z,10.85
2023-05-23T05:16:57.967Z,10.65
2023-05-23T05:19:32.120Z,10.60
2023-05-23T05:22:02.150Z,9.95
2023-05-23T05:24:33.023Z,10.38
2023-05-23T05:27:01.820Z,10.35
2023-05-23T05:29:33.996Z,11.65
2023-05-23T05:32:03.518Z,11.38
2023-05-23T05:34:33.606Z,10.77
2023-05-23T05:37:02.448Z,10.90
2023-05-23T05:39:31.530Z,10.95
2023-05-23T05:42:01.517Z,11.07
2023-05-23T05:44:32.799Z,11.10
2023-05-23T05:47:01.785Z,9.90
2023-05-23T05:49:31.661Z,10.38
2023-05-23T05:52:00.509Z,11.15
2023-05-23T05:54:29.619Z,10.82
2023-05-23T05:56:58.645Z,9.57
2023-05-23T05:59:30.552Z,9.15
2023-05-23T06:02:02.958Z,9.02
2023-05-23T06:04:32.704Z,9.65
2023-05-23T06:07:01.786Z,10.25
2023-05-23T06:09:31.310Z,10.48
2023-05-23T06:12:00.309Z,10.23
2023-05-23T06:14:29.089Z,10.18
2023-05-23T06:16:58.540Z,10.23
2023-05-23T06:19:29.212Z,10.68
2023-05-23T06:21:58.999Z,11.13
2023-05-23T06:24:27.923Z,11.02
2023-05-23T06:26:56.730Z,10.32
2023-05-23T06:29:27.056Z,10.90
2023-05-23T06:31:57.259Z,11.32
2023-05-23T06:34:28.525Z,9.90
2023-05-23T06:36:57.702Z,11.13
2023-05-23T06:39:26.659Z,10.05
2023-05-23T06:41:56.701Z,11.07
2023-05-23T06:44:25.617Z,10.88
2023-05-23T06:46:58.955Z,11.50
2023-05-23T06:49:30.301Z,10.45
2023-05-23T06:51:59.219Z,11.02
2023-05-23T06:54:28.662Z,11.38
2023-05-23T06:56:57.720Z,11.60
2023-05-23T06:59:27.196Z,11.40
2023-05-23T07:01:56.161Z,11.85
2023-05-23T07:04:26.246Z,11.98
2023-05-23T07:06:57.547Z,11.13
2023-05-23T07:09:26.546Z,11.98
2023-05-23T07:12:05.395Z,11.38
2023-05-23T07:14:38.330Z,11.95
2023-05-23T07:17:07.955Z,10.93
2023-05-23T07:19:37.094Z,11.50
2023-05-23T07:22:07.478Z,11.35
2023-05-23T07:24:39.548Z,11.43
2023-05-23T07:27:10.544Z,10.77
2023-05-23T07:29:41.600Z,11.43
2023-05-23T07:32:12.056Z,12.55
2023-05-23T07:34:41.559Z,10.88
2023-05-23T07:37:12.200Z,11.07
2023-05-23T07:39:45.472Z,11.15
2023-05-23T07:42:15.022Z,11.35
2023-05-23T07:44:43.977Z,11.07
2023-05-23T07:47:12.664Z,10.27
2023-05-23T07:49:41.351Z,9.82
2023-05-23T07:52:12.097Z,9.73
2023-05-23T07:54:41.219Z,10.00
2023-05-23T07:57:10.538Z,9.88
2023-05-23T07:59:41.055Z,9.30
2023-05-23T08:02:10.088Z,9.00
2023-05-23T08:04:40.471Z,8.23
2023-05-23T08:07:12.029Z,8.90
2023-05-23T08:09:50.603Z,9.10
2023-05-23T08:12:21.668Z,9.43
2023-05-23T08:14:54.645Z,8.68
2023-05-23T08:17:25.828Z,9.05
2023-05-23T08:19:55.232Z,9.38
2023-05-23T08:22:24.620Z,9.07
2023-05-23T08:24:54.759Z,9.55
2023-05-23T08:27:28.002Z,9.70
2023-05-23T08:30:52.201Z,10.32
2023-05-23T08:33:21.019Z,10.00
2023-05-23T08:35:52.758Z,10.18
2023-05-23T08:38:22.232Z,10.77
2023-05-23T08:41:14.357Z,10.55
2023-05-23T08:43:43.197Z,9.07
2023-05-23T08:46:14.408Z,10.05
2023-05-23T08:48:45.544Z,9.18
2023-05-23T08:51:17.017Z,10.02
2023-05-23T08:53:51.644Z,10.15
2023-05-23T08:56:26.165Z,9.50
2023-05-23T08:58:55.626Z,9.27
2023-05-23T09:01:26.205Z,9.18
2023-05-23T09:04:00.504Z,8.77
2023-05-23T09:06:32.751Z,8.55
2023-05-23T09:09:01.654Z,8.88
2023-05-23T09:11:36.281Z,8.93
2023-05-23T09:14:18.242Z,8.23
2023-05-23T09:16:52.407Z,7.93
2023-05-23T09:19:26.384Z,7.80
2023-05-23T09:22:04.457Z,7.88
2023-05-23T09:24:40.233Z,8.25
2023-05-23T09:27:12.382Z,8.13
2023-05-23T09:29:41.719Z,7.95
2023-05-23T09:32:15.078Z,8.18
2023-05-23T09:34:44.262Z,7.53
2023-05-23T09:37:19.736Z,8.45
2023-05-23T09:39:49.908Z,6.97
2023-05-23T09:42:24.287Z,7.38
2023-05-23T09:44:53.019Z,6.90
2023-05-23T09:47:21.802Z,6.75
2023-05-23T09:49:51.535Z,7.22
2023-05-23T09:52:21.553Z,7.43
2023-05-23T09:54:56.245Z,7.13
2023-05-23T09:57:27.084Z,6.60
2023-05-23T09:59:58.787Z,6.53
2023-05-23T10:02:57.628Z,6.07
2023-05-23T10:05:36.464Z,6.65
2023-05-23T10:08:15.627Z,6.93
2023-05-23T10:11:33.792Z,6.35
2023-05-23T10:14:16.872Z,6.25
2023-05-23T10:16:57.054Z,5.72
2023-05-23T10:19:28.779Z,5.65
2023-05-23T10:22:01.029Z,6.25
2023-05-23T10:24:30.428Z,6.40
2023-05-23T10:27:00.243Z,6.45
2023-05-23T10:29:36.723Z,6.47
2023-05-23T10:32:07.988Z,6.78
2023-05-23T10:34:43.349Z,6.18
2023-05-23T10:37:22.275Z,6.22
2023-05-23T10:40:03.810Z,6.40
2023-05-23T10:42:43.181Z,5.90
2023-05-23T10:45:21.206Z,5.82
2023-05-23T10:47:52.570Z,6.20
2023-05-23T10:50:34.369Z,5.93
2023-05-23T10:53:04.231Z,6.32
2023-05-23T10:55:34.201Z,5.63
2023-05-23T10:58:13.329Z,5.88
2023-05-23T11:00:52.520Z,5.68
2023-05-23T11:03:32.012Z,5.93
2023-05-23T11:06:01.210Z,5.53
2023-05-23T11:08:43.292Z,5.57
2023-05-23T11:11:16.302Z,5.38
2023-05-23T11:14:00.565Z,4.70
2023-05-23T11:16:32.863Z,4.65
2023-05-23T11:19:26.324Z,4.43
2023-05-23T11:21:57.477Z,4.82
2023-05-23T11:24:46.325Z,4.43
2023-05-23T11:27:15.484Z,4.93
2023-05-23T11:29:44.415Z,5.13
2023-05-23T11:32:17.602Z,3.95
2023-05-23T11:34:46.487Z,4.30
2023-05-23T11:37:15.374Z,4.22
2023-05-23T11:39:44.023Z,3.90
2023-05-23T11:42:12.664Z,3.72
2023-05-23T11:44:41.684Z,4.22
2023-05-23T11:47:10.915Z,3.85
2023-05-23T11:49:42.020Z,3.40
2023-05-23T11:52:11.016Z,3.47
2023-05-23T11:54:41.992Z,3.60
2023-05-23T11:57:10.869Z,3.60
2023-05-23T11:59:40.132Z,3.40
2023-05-23T12:02:09.584Z,3.22
2023-05-23T12:04:41.841Z,3.40
2023-05-23T12:07:10.792Z,3.00
2023-05-23T12:09:46.686Z,3.05
2023-05-23T12:12:43.348Z,3.03
2023-05-23T12:15:13.190Z,3.05
2023-05-23T12:17:48.150Z,2.75
2023-05-23T12:20:25.602Z,3.10
2023-05-23T12:22:56.656Z,2.97
2023-05-23T12:25:25.545Z,3.10
2023-05-23T12:27:56.457Z,3.30
2023-05-23T12:30:25.061Z,3.00
2023-05-23T12:32:53.789Z,2.95
2023-05-23T12:35:27.595Z,3.05
2023-05-23T12:37:58.924Z,3.20
2023-05-23T12:40:27.661Z,2.83
2023-05-23T12:42:57.594Z,3.22
2023-05-23T12:45:34.290Z,2.97
2023-05-23T12:48:03.916Z,3.00
2023-05-23T12:50:35.305Z,2.90
2023-05-23T12:53:03.947Z,3.05
2023-05-23T12:55:32.701Z,3.15
2023-05-23T12:58:01.360Z,3.00
2023-05-23T13:00:30.225Z,3.00
2023-05-23T13:02:58.973Z,3.30
2023-05-23T13:05:28.017Z,2.92
2023-05-23T13:07:59.707Z,2.90
2023-05-23T13:10:30.939Z,3.03
2023-05-23T13:13:00.574Z,2.70
2023-05-23T13:15:29.804Z,3.22
2023-05-23T13:17:58.826Z,3.50
2023-05-23T13:20:30.238Z,2.70
2023-05-23T13:23:00.920Z,2.63
2023-05-23T13:25:29.699Z,3.50
2023-05-23T13:27:58.422Z,2.90
2023-05-23T13:30:26.862Z,3.00
2023-05-23T13:34:15.048Z,2.90
2023-05-23T13:36:43.688Z,2.97
2023-05-23T13:39:14.609Z,2.72
2023-05-23T13:41:43.406Z,3.00
2023-05-23T13:44:12.226Z,3.00
2023-05-23T13:46:41.162Z,2.75
2023-05-23T13:49:09.927Z,3.00
2023-05-23T13:51:38.583Z,2.70
2023-05-23T13:54:07.547Z,2.95
2023-05-23T13:56:39.826Z,3.00
2023-05-23T13:59:08.582Z,2.90
2023-05-23T14:01:37.176Z,2.65
2023-05-23T14:04:07.116Z,2.80
2023-05-23T14:06:36.863Z,3.22
2023-05-23T14:09:06.223Z,2.70
2023-05-23T14:11:36.446Z,2.88
2023-05-23T14:14:05.282Z,2.42
2023-05-23T14:16:34.119Z,2.72
2023-05-23T14:19:03.300Z,2.90
2023-05-23T14:21:32.703Z,2.78
2023-05-23T14:24:01.716Z,2.85
2023-05-23T14:26:30.525Z,3.00
2023-05-23T14:29:00.885Z,2.83
2023-05-23T14:31:29.835Z,2.80
2023-05-23T14:33:58.785Z,2.80
2023-05-23T14:36:27.608Z,3.03
2023-05-23T14:38:56.551Z,4.68
2023-05-23T14:41:25.604Z,5.45
2023-05-23T14:43:56.391Z,3.83
2023-05-23T14:46:26.561Z,3.05
2023-05-23T14:48:55.480Z,2.67
2023-05-23T14:51:41.776Z,2.40
2023-05-23T14:54:13.209Z,2.50
2023-05-23T14:56:43.355Z,2.67
2023-05-23T14:59:12.689Z,2.83
2023-05-23T15:01:44.719Z,2.70
2023-05-23T15:04:14.116Z,2.25
2023-05-23T15:06:47.304Z,2.20
2023-05-23T15:09:16.917Z,2.05
2023-05-23T15:11:47.275Z,2.40
2023-05-23T15:14:20.083Z,2.53
2023-05-23T15:16:51.475Z,2.10
2023-05-23T15:19:21.538Z,2.30
2023-05-23T15:21:51.808Z,2.30
2023-05-23T15:24:20.924Z,2.67
2023-05-23T15:27:20.167Z,2.55
2023-05-23T15:29:52.713Z,2.53
2023-05-23T15:32:23.167Z,2.40
2023-05-23T15:34:52.277Z,2.60
2023-05-23T15:37:21.047Z,2.35
2023-05-23T15:39:50.066Z,2.33
2023-05-23T15:42:19.817Z,3.90
2023-05-23T15:44:48.682Z,2.92
2023-05-23T15:47:18.779Z,3.08
2023-05-23T15:49:49.276Z,2.80
2023-05-23T15:52:18.072Z,4.82
2023-05-23T15:54:47.087Z,2.67
2023-05-23T15:57:16.022Z,2.63
2023-05-23T15:59:44.967Z,2.88
2023-05-23T16:02:14.743Z,2.63
2023-05-23T16:04:43.744Z,2.80
2023-05-23T16:07:15.378Z,2.70
2023-05-23T16:09:45.834Z,2.70
2023-05-23T16:12:14.392Z,2.65
2023-05-23T16:14:43.018Z,2.65
2023-05-23T16:17:11.973Z,2.58
2023-05-23T16:22:09.736Z,2.63
2023-05-23T16:24:40.011Z,2.70
2023-05-23T16:27:08.869Z,2.55
2023-05-23T16:29:37.689Z,2.50
2023-05-23T16:32:07.190Z,2.40
2023-05-23T16:34:36.095Z,2.40
2023-05-23T16:37:04.909Z,2.28
2023-05-23T16:39:33.865Z,2.50
2023-05-23T16:42:04.141Z,2.60
2023-05-23T16:44:32.993Z,2.25
2023-05-23T16:47:02.065Z,2.22
2023-05-23T16:49:30.798Z,2.20
2023-05-23T16:51:59.733Z,2.65
2023-05-23T16:54:31.313Z,2.30
2023-05-23T16:57:02.029Z,2.30
2023-05-23T16:59:32.814Z,3.30
2023-05-23T17:02:01.893Z,2.58
2023-05-23T17:04:30.514Z,3.22
2023-05-23T17:06:59.294Z,2.70
2023-05-23T17:09:28.101Z,2.75
2023-05-23T17:11:57.070Z,3.58
2023-05-23T17:14:25.734Z,3.05
2023-05-23T17:16:55.986Z,2.67
2023-05-23T17:19:25.523Z,2.50
2023-05-23T17:21:54.312Z,2.67
2023-05-23T17:24:23.097Z,2.25
2023-05-23T17:26:51.956Z,2.72
2023-05-23T17:29:21.193Z,3.13
2023-05-23T17:31:50.295Z,1.95
2023-05-23T17:34:46.457Z,2.03
2023-05-23T17:37:15.687Z,2.05
2023-05-23T17:39:44.585Z,2.00
2023-05-23T17:42:13.773Z,1.88
2023-05-23T17:44:46.918Z,2.00
2023-05-23T17:47:15.849Z,1.95
2023-05-23T17:49:44.538Z,2.00
2023-05-23T17:52:15.131Z,1.80
2023-05-23T17:54:43.908Z,1.70
2023-05-23T17:57:12.708Z,2.10
2023-05-23T17:59:41.470Z,1.90
2023-05-23T18:02:10.872Z,2.20
2023-05-23T18:04:39.906Z,1.92
2023-05-23T18:07:11.085Z,1.80
2023-05-23T18:09:41.386Z,2.10
2023-05-23T18:12:11.675Z,1.88
2023-05-23T18:14:41.608Z,2.05
2023-05-23T18:17:10.554Z,2.00
2023-05-23T18:19:39.286Z,1.92
2023-05-23T18:22:07.975Z,2.08
2023-05-23T18:24:36.694Z,1.80
2023-05-23T18:27:07.829Z,2.00
2023-05-23T18:29:36.942Z,2.00
2023-05-23T18:32:05.867Z,1.75
2023-05-23T18:34:34.590Z,1.80
2023-05-23T18:37:03.493Z,1.90
2023-05-23T18:39:32.334Z,1.90
2023-05-23T18:42:01.185Z,1.92
2023-05-23T18:44:31.358Z,2.10
2023-05-23T18:46:59.994Z,2.00
2023-05-23T18:49:28.647Z,1.95
2023-05-23T18:51:57.605Z,2.10
2023-05-23T18:54:26.247Z,2.10
2023-05-23T18:56:55.004Z,2.10
2023-05-23T18:59:23.704Z,2.17
2023-05-23T19:01:53.847Z,2.38
2023-05-23T19:04:22.580Z,2.70
2023-05-23T19:06:51.534Z,2.30
2023-05-23T19:09:20.290Z,2.60
2023-05-23T19:11:48.932Z,2.67
2023-05-23T19:14:17.611Z,2.80
2023-05-23T19:16:46.470Z,2.80
2023-05-23T19:19:23.273Z,2.70
2023-05-23T19:21:52.392Z,3.10
2023-05-23T19:24:23.899Z,3.23
2023-05-23T19:26:53.473Z,3.72
2023-05-23T19:29:22.992Z,3.28
2023-05-23T19:31:57.043Z,3.65
2023-05-23T19:34:27.791Z,3.55
2023-05-23T19:37:03.344Z,3.85
2023-05-23T19:39:32.169Z,3.80
2023-05-23T19:42:01.163Z,4.00
2023-05-23T19:44:30.066Z,4.10
2023-05-23T19:46:58.814Z,4.03
2023-05-23T19:49:29.263Z,4.40
2023-05-23T19:51:58.025Z,4.60
2023-05-23T19:54:28.119Z,3.88
2023-05-23T19:56:56.751Z,3.80
2023-05-23T19:59:30.427Z,4.00
2023-05-23T20:01:59.385Z,3.60
2023-05-23T20:04:29.778Z,3.90
2023-05-23T20:06:58.793Z,3.63
2023-05-23T20:09:27.943Z,3.67
2023-05-23T20:11:57.054Z,3.60
2023-05-23T20:14:26.752Z,3.97
2023-05-23T20:16:56.993Z,4.00
2023-05-23T20:19:25.749Z,3.57
2023-05-23T20:21:56.821Z,3.70
2023-05-23T20:24:25.730Z,3.70
2023-05-23T20:26:54.451Z,3.60
2023-05-23T20:29:23.209Z,3.67
2023-05-23T20:31:52.066Z,3.73
2023-05-23T20:34:20.749Z,3.40
2023-05-23T20:36:49.588Z,3.60
2023-05-23T20:39:21.994Z,4.00
2023-05-23T20:41:51.053Z,3.67
2023-05-23T20:44:19.977Z,3.90
2023-05-23T20:46:48.757Z,4.10
2023-05-23T20:49:17.855Z,3.73
2023-05-23T20:51:46.591Z,3.60
2023-05-23T20:54:16.208Z,3.73
2023-05-23T20:56:46.515Z,3.90
2023-05-23T20:59:16.597Z,3.47
2023-05-23T21:01:45.467Z,4.13
2023-05-23T21:04:15.272Z,3.60
2023-05-23T21:06:44.959Z,3.50
2023-05-23T21:09:13.967Z,3.90
2023-05-23T21:11:42.619Z,3.80
2023-05-23T21:14:14.318Z,3.90
2023-05-23T21:16:43.224Z,3.70
2023-05-23T21:19:11.908Z,3.73
2023-05-23T21:21:40.701Z,3.47
2023-05-23T21:24:09.690Z,4.00
2023-05-23T21:26:38.480Z,3.73
2023-05-23T21:29:07.404Z,4.20
2023-05-23T21:31:41.346Z,3.50
2023-05-23T21:34:23.057Z,4.00
2023-05-23T21:36:53.065Z,3.63
2023-05-23T21:39:22.122Z,3.50
2023-05-23T21:41:51.237Z,3.77
2023-05-23T21:44:20.611Z,3.87
2023-05-23T21:46:53.917Z,3.80
2023-05-23T21:49:22.785Z,4.03
2023-05-23T21:51:51.802Z,3.90
2023-05-23T21:54:20.704Z,4.00
2023-05-23T21:56:49.542Z,3.80
2023-05-23T21:59:18.175Z,4.30
2023-05-23T22:01:46.904Z,4.00
2023-05-23T22:04:20.011Z,3.70
2023-05-23T22:06:48.998Z,3.60
2023-05-23T22:09:18.528Z,3.73
2023-05-23T22:11:47.225Z,3.83
2023-05-23T22:14:15.980Z,3.77
2023-05-23T22:16:44.776Z,3.70
2023-05-23T22:19:18.129Z,3.63
2023-05-23T22:21:48.774Z,3.50
2023-05-23T22:24:17.569Z,3.50
2023-05-23T22:26:46.283Z,3.70
2023-05-23T22:29:14.892Z,3.70
2023-05-23T22:31:43.708Z,3.93
2023-05-23T22:34:12.524Z,3.97
2023-05-23T22:36:41.247Z,3.87
2023-05-23T22:39:11.468Z,3.70
2023-05-23T22:41:40.400Z,3.80
2023-05-23T22:44:09.034Z,3.67
2023-05-23T22:46:39.644Z,3.70
2023-05-23T22:49:08.963Z,4.27
2023-05-23T22:51:37.730Z,3.73
2023-05-23T22:54:06.778Z,3.80
2023-05-23T22:56:36.966Z,4.00
2023-05-23T22:59:05.699Z,4.17
2023-05-23T23:01:34.625Z,4.40
2023-05-23T23:04:03.360Z,3.93
2023-05-23T23:06:34.117Z,4.07
2023-05-23T23:09:02.935Z,4.10
2023-05-23T23:11:31.789Z,4.40
2023-05-23T23:14:02.344Z,4.23
2023-05-23T23:16:31.248Z,4.43
2023-05-23T23:18:59.964Z,4.40
2023-05-23T23:21:28.854Z,4.00
2023-05-23T23:23:58.590Z,4.37
2023-05-23T23:26:27.817Z,4.17
2023-05-23T23:28:56.644Z,4.27
2023-05-23T23:31:26.910Z,3.80
2023-05-23T23:33:55.870Z,4.30
2023-05-23T23:36:24.673Z,4.30
2023-05-23T23:38:53.418Z,4.23
2023-05-23T23:41:23.014Z,4.63
2023-05-23T23:43:51.698Z,5.33
2023-05-23T23:46:21.043Z,4.43
2023-05-23T23:48:51.349Z,4.30
2023-05-23T23:51:20.053Z,4.53
2023-05-23T23:53:51.016Z,4.70
2023-05-23T23:56:22.894Z,4.73
2023-05-23T23:58:52.231Z,4.60
